Home SimBrief SimBrief Classic Flight Aware Waypoint Lookup METAR Lookup Random Flight Liveries Login Register IFC Events Server Stats Active Expert ATC Tutorials Community Infinite Flight
Privacy Policy

Version 18.2

Flight Plan Options
Generated Flight Plan
Copies the generated flight plan to your device clipboard. Go to Infinite Flight, go to the map, press on the search box, long press in the popup text box and select paste, press ok.
      Please login in order to save your plan to fpltoif.

Airport Information
Departure Arrival
Airport Code KBHB CYYR
Elevation 83 160
Planned Runway 22 34
Current Weather 2019/05/21 12:56
KBHB 211256Z AUTO 31009G21KT 10SM BKN034 14/08 A2957 RMK AO2 SLP018 T01440078 $
2019/05/21 13:00
CYYR 211300Z 07009KT 8SM -RA SCT004 OVC007 03/02 A2996 RMK SF3SF5 VIS LWR W SLP148
SID/STAR (SID) (STAR)
Aircraft TBM 900
Flight Level 29,000
Plan Distance 719 NM
Flight Time 2:42
Block Fuel 797 kgs
Climb Profile 170/40
Descent Profile 2000FPM
# Passengers 5
Cargo Weight 0
Notes
System Remarks
Analyzed Flight Plan
Waypoint
Stage
Status
IF FPL
Altitude
Airspeed
Mach Speed
VS to Next
Rem Dist
Del
ete
Add SID/STAR Waypoints

You can automatically add published SID/STARs into your plan. Select the SID and/or STAR you wish and press the insert button. The recommended SID/STAR for the runway is shown as a guide. Not all airports have SID/STARs available. SID/STAR waypoints that are already in the genereated plan will be ignored.

*** Note *** Due to different versions between SimBrief and the SID/STAR source names may not match 100%. For example, JASPA5 may be the same as JASPA7 if 5 does not exist.

Select SID
Recommended:
22
Select STAR
Recommended:
34
 
Add Waypoints
Enter in your waypoint, press validate. The system will identify if there are duplicates in the world and show you a list of available waypoints. Select the one you wish to add and which waypoint to add it after.
Search for Waypoint
Select Waypoint
Add after:
 
Airport Diagrams
Airport diagram availability may be limited.
KBHB
CYYR
Plan Maps
Route
Vertical Profile